Time;durP1;ratioP1;P1;durP2;ratioP2;P2;SDS_P1;SDS_P2;PMS_P1;PMS_P2;Temp;Humidity;BMP_temperature;BMP_pressure;BME280_temperature;BME280_humidity;BME280_pressure;Samples;Min_cycle;Max_cycle;Signal;HPM_P1;HPM_P2
2023/07/09 00:02:25;;;;;;;7.97;5.70;;;25.90;94.50;;;;;;5047238;28;20892;-41
2023/07/09 00:04:50;;;;;;;6.55;5.25;;;25.90;94.50;;;;;;5048505;28;20043;-42
2023/07/09 00:07:31;;;;;;;7.65;5.43;;;25.80;94.50;;;;;;5047182;28;20045;-41
2023/07/09 00:09:59;;;;;;;6.70;5.53;;;25.70;94.70;;;;;;5048687;28;20033;-42
2023/07/09 00:12:25;;;;;;;6.88;5.47;;;25.70;94.90;;;;;;5048039;28;20029;-42
2023/07/09 00:14:51;;;;;;;5.88;5.10;;;25.60;94.90;;;;;;5044098;28;20024;-42
2023/07/09 00:17:27;;;;;;;7.47;5.35;;;25.60;94.90;;;;;;5048109;28;20758;-42
2023/07/09 00:19:53;;;;;;;7.03;5.20;;;25.60;95.00;;;;;;5047273;28;20062;-42
2023/07/09 00:22:22;;;;;;;8.35;5.63;;;25.60;95.00;;;;;;5047871;28;20017;-42
2023/07/09 00:24:50;;;;;;;6.45;5.82;;;25.60;95.10;;;;;;5047702;28;20476;-42
2023/07/09 00:27:21;;;;;;;6.15;5.55;;;25.60;95.20;;;;;;5046780;28;20032;-43
2023/07/09 00:29:47;;;;;;;7.97;5.63;;;25.60;95.20;;;;;;5047283;28;20592;-43
2023/07/09 00:32:15;;;;;;;6.95;5.40;;;25.60;95.30;;;;;;5047900;28;20040;-41
2023/07/09 00:34:48;;;;;;;9.27;6.30;;;25.60;95.30;;;;;;5046961;28;20040;-41
2023/07/09 00:37:19;;;;;;;7.18;5.78;;;25.60;95.30;;;;;;5047692;28;20025;-41
2023/07/09 00:39:45;;;;;;;9.45;5.55;;;25.60;95.30;;;;;;5047598;28;20033;-41
2023/07/09 00:42:19;;;;;;;6.10;5.50;;;25.60;95.40;;;;;;5047202;28;20109;-41
2023/07/09 00:44:47;;;;;;;6.45;5.60;;;25.60;95.40;;;;;;5047338;28;20017;-41
2023/07/09 00:47:19;;;;;;;6.22;5.50;;;25.60;95.40;;;;;;5047400;28;20108;-41
2023/07/09 00:49:48;;;;;;;6.88;5.68;;;25.50;95.40;;;;;;5047041;28;20009;-42
2023/07/09 00:52:33;;;;;;;6.35;4.80;;;25.50;95.50;;;;;;5047518;28;20047;-42
2023/07/09 00:55:04;;;;;;;7.25;5.82;;;25.50;95.60;;;;;;5046816;28;20021;-41
2023/07/09 00:57:33;;;;;;;6.13;5.53;;;25.40;95.80;;;;;;5047695;28;20551;-41
2023/07/09 01:00:12;;;;;;;7.07;5.72;;;25.40;95.90;;;;;;5047066;28;20025;-41
2023/07/09 01:02:39;;;;;;;7.95;5.97;;;25.30;96.00;;;;;;5046851;28;20021;-41
2023/07/09 01:05:06;;;;;;;6.72;5.25;;;25.30;96.00;;;;;;5047361;28;20104;-41
2023/07/09 01:07:32;;;;;;;6.90;5.30;;;25.30;96.00;;;;;;5047092;28;20045;-41
2023/07/09 01:09:58;;;;;;;7.20;5.68;;;25.30;96.00;;;;;;5046406;28;20032;-42
2023/07/09 01:12:23;;;;;;;6.95;5.85;;;25.30;96.00;;;;;;5047436;28;20040;-42
2023/07/09 01:14:52;;;;;;;6.05;5.45;;;25.30;96.00;;;;;;5046392;28;20131;-42
2023/07/09 01:17:19;;;;;;;6.82;5.63;;;25.20;96.00;;;;;;5046833;28;20021;-41
2023/07/09 01:19:50;;;;;;;7.28;5.93;;;25.30;96.00;;;;;;5047415;28;20055;-41
2023/07/09 01:22:18;;;;;;;9.15;5.85;;;25.30;96.00;;;;;;5047017;28;20025;-41
2023/07/09 01:25:06;;;;;;;6.18;5.10;;;25.30;95.90;;;;;;5046391;28;20040;-42
2023/07/09 01:27:34;;;;;;;7.40;6.03;;;25.30;95.90;;;;;;5045944;28;20570;-42
2023/07/09 01:30:03;;;;;;;7.15;5.75;;;25.30;95.90;;;;;;5045803;28;20862;-41
2023/07/09 01:32:29;;;;;;;7.63;6.15;;;25.30;96.00;;;;;;5043562;28;20063;-42
2023/07/09 01:34:57;;;;;;;6.22;5.30;;;25.30;96.10;;;;;;5046850;28;20037;-41
2023/07/09 01:37:26;;;;;;;7.25;5.57;;;25.30;96.10;;;;;;5046343;28;20067;-42
2023/07/09 01:39:55;;;;;;;6.80;5.97;;;25.20;96.20;;;;;;5046849;28;20025;-42
2023/07/09 01:42:28;;;;;;;6.32;5.72;;;25.20;96.20;;;;;;5046609;28;20075;-42
2023/07/09 01:44:54;;;;;;;6.70;5.57;;;25.20;96.30;;;;;;5046270;28;20029;-42
2023/07/09 01:47:20;;;;;;;6.65;5.88;;;25.20;96.30;;;;;;5046314;28;20721;-41
2023/07/09 01:49:46;;;;;;;7.28;5.85;;;25.10;96.40;;;;;;5047171;28;20017;-42
2023/07/09 01:52:13;;;;;;;6.63;5.47;;;25.10;96.50;;;;;;5045705;28;20096;-42
2023/07/09 01:54:39;;;;;;;5.22;4.68;;;25.00;96.50;;;;;;5046675;28;20031;-41
2023/07/09 01:57:35;;;;;;;6.80;5.35;;;24.90;96.60;;;;;;5046144;28;20013;-42
2023/07/09 02:00:10;;;;;;;6.53;5.35;;;24.90;96.70;;;;;;5044941;28;20036;-41
2023/07/09 02:02:38;;;;;;;6.68;5.40;;;24.90;96.70;;;;;;5046042;28;20040;-41
2023/07/09 02:05:04;;;;;;;6.78;5.00;;;24.90;96.80;;;;;;5045482;28;20036;-42
2023/07/09 02:07:30;;;;;;;6.07;4.97;;;24.80;96.90;;;;;;5045889;28;20394;-41
2023/07/09 02:09:57;;;;;;;6.00;4.95;;;24.80;96.90;;;;;;5046084;28;20032;-41
2023/07/09 02:12:22;;;;;;;7.10;5.40;;;24.80;97.00;;;;;;5044964;28;20050;-41
2023/07/09 02:14:48;;;;;;;5.97;5.38;;;24.70;97.10;;;;;;5046060;28;20029;-41
2023/07/09 02:17:17;;;;;;;8.93;5.70;;;24.70;97.10;;;;;;5046005;28;20020;-42
2023/07/09 02:19:43;;;;;;;8.25;5.40;;;24.70;97.20;;;;;;5045218;28;20085;-42
2023/07/09 02:22:10;;;;;;;5.65;4.82;;;24.60;97.20;;;;;;5045592;28;20017;-41
2023/07/09 02:24:36;;;;;;;6.78;5.13;;;24.60;97.30;;;;;;5045179;28;20104;-41
2023/07/09 02:27:06;;;;;;;5.90;4.68;;;24.60;97.30;;;;;;5044560;28;20013;-41
2023/07/09 02:29:32;;;;;;;6.25;5.30;;;24.50;97.30;;;;;;5045187;28;20762;-41
2023/07/09 02:31:59;;;;;;;5.88;4.88;;;24.50;97.40;;;;;;5045628;28;20025;-42
2023/07/09 02:34:29;;;;;;;5.80;5.20;;;24.50;97.70;;;;;;5044203;28;20029;-42
2023/07/09 02:36:56;;;;;;;5.97;5.38;;;24.50;97.50;;;;;;5045392;28;20021;-43
2023/07/09 02:39:22;;;;;;;5.85;4.95;;;24.40;97.50;;;;;;5045683;28;20040;-43
2023/07/09 02:41:48;;;;;;;5.95;5.30;;;24.40;97.60;;;;;;5044966;28;20028;-41
2023/07/09 02:44:15;;;;;;;6.75;5.05;;;24.40;97.50;;;;;;5045537;28;20088;-41
2023/07/09 02:46:41;;;;;;;5.97;5.25;;;24.40;97.60;;;;;;5026437;28;20032;-41
2023/07/09 02:49:09;;;;;;;6.57;5.47;;;24.30;97.60;;;;;;5038711;28;20021;-41
2023/07/09 02:51:34;;;;;;;6.93;4.68;;;24.30;97.60;;;;;;5045713;28;20052;-41
2023/07/09 02:54:02;;;;;;;7.30;5.32;;;24.30;97.70;;;;;;5045633;28;20072;-42
2023/07/09 02:56:40;;;;;;;6.28;5.10;;;24.30;97.70;;;;;;5044829;28;20021;-43
2023/07/09 02:59:06;;;;;;;7.38;5.50;;;24.20;97.70;;;;;;5045355;28;20036;-41
2023/07/09 03:01:34;;;;;;;6.20;5.18;;;24.30;97.80;;;;;;5044555;28;20021;-42
2023/07/09 03:04:01;;;;;;;6.93;5.35;;;24.20;97.80;;;;;;5045300;28;20036;-42
2023/07/09 03:06:28;;;;;;;8.07;5.85;;;24.20;98.20;;;;;;5045183;28;20128;-41
2023/07/09 03:08:56;;;;;;;7.57;5.43;;;24.20;98.00;;;;;;5044374;28;20025;-42
2023/07/09 03:11:22;;;;;;;8.82;6.00;;;24.20;98.00;;;;;;5045275;28;20020;-43
2023/07/09 03:13:48;;;;;;;8.43;5.70;;;24.20;98.10;;;;;;5045344;28;20480;-43
2023/07/09 03:16:15;;;;;;;6.88;5.75;;;24.10;98.10;;;;;;5044380;28;20056;-43
2023/07/09 03:18:40;;;;;;;6.20;5.47;;;24.10;98.20;;;;;;5045168;28;20041;-43
2023/07/09 03:21:06;;;;;;;6.45;5.45;;;24.10;98.30;;;;;;5044943;28;20021;-43
2023/07/09 03:23:32;;;;;;;6.38;5.60;;;24.10;98.40;;;;;;5044470;28;20095;-42
2023/07/09 03:25:59;;;;;;;6.65;5.80;;;24.10;98.50;;;;;;5044581;28;20025;-42
2023/07/09 03:28:31;;;;;;;7.60;5.95;;;24.10;98.60;;;;;;5045061;28;20089;-42
2023/07/09 03:30:57;;;;;;;7.28;6.13;;;24.10;98.60;;;;;;5044093;28;20017;-42
2023/07/09 03:33:24;;;;;;;7.60;6.00;;;24.00;98.70;;;;;;5045506;28;20036;-42
2023/07/09 03:35:51;;;;;;;6.10;5.50;;;24.00;98.70;;;;;;5044773;28;20135;-42
2023/07/09 03:38:19;;;;;;;8.95;5.80;;;24.00;99.10;;;;;;5048259;28;20047;-42
2023/07/09 03:40:45;;;;;;;6.13;5.55;;;24.00;98.90;;;;;;5049227;28;20024;-41
2023/07/09 03:43:11;;;;;;;7.82;5.70;;;24.00;98.90;;;;;;5049299;28;20029;-42
2023/07/09 03:45:38;;;;;;;7.97;5.97;;;24.00;99.00;;;;;;5048203;28;20017;-43
2023/07/09 03:48:05;;;;;;;8.05;5.85;;;24.00;99.10;;;;;;5048890;28;20052;-41
2023/07/09 03:50:30;;;;;;;7.53;5.90;;;24.00;99.10;;;;;;5047830;28;20025;-42
2023/07/09 03:52:56;;;;;;;7.53;6.25;;;23.90;99.40;;;;;;5048713;28;20032;-42
2023/07/09 03:55:22;;;;;;;8.25;6.60;;;23.90;99.10;;;;;;5048771;28;20445;-41
2023/07/09 03:57:47;;;;;;;6.93;6.22;;;24.00;99.10;;;;;;5047798;28;20615;-43
2023/07/09 04:00:14;;;;;;;7.80;6.78;;;24.00;99.10;;;;;;5048154;28;20021;-42
2023/07/09 04:02:40;;;;;;;7.00;6.20;;;24.00;99.20;;;;;;5048638;28;20032;-42
2023/07/09 04:05:10;;;;;;;6.90;6.15;;;24.00;99.20;;;;;;5047394;28;20029;-42
2023/07/09 04:07:38;;;;;;;6.95;6.18;;;24.00;99.30;;;;;;5047747;28;20669;-41
2023/07/09 04:10:05;;;;;;;8.35;5.95;;;24.10;99.30;;;;;;5048209;28;20021;-42
2023/07/09 04:12:31;;;;;;;7.65;6.30;;;24.10;99.40;;;;;;5046761;28;20460;-42
2023/07/09 04:15:00;;;;;;;8.13;6.85;;;24.10;99.40;;;;;;5048528;28;20211;-41
2023/07/09 04:17:25;;;;;;;6.75;6.05;;;24.10;99.50;;;;;;5048600;28;20013;-42
2023/07/09 04:19:53;;;;;;;9.00;6.45;;;24.10;99.50;;;;;;5047046;28;20498;-42
2023/07/09 04:22:19;;;;;;;7.47;6.13;;;24.10;99.60;;;;;;5047773;28;20051;-41
2023/07/09 04:24:45;;;;;;;9.65;6.35;;;24.10;99.60;;;;;;5047668;28;20380;-41
2023/07/09 04:27:13;;;;;;;6.90;6.20;;;24.10;99.70;;;;;;5047152;28;20578;-41
2023/07/09 04:29:42;;;;;;;8.15;6.47;;;24.20;99.80;;;;;;5047713;28;20033;-42
2023/07/09 04:32:15;;;;;;;7.97;7.00;;;24.20;99.80;;;;;;5047189;28;20143;-42
2023/07/09 04:34:41;;;;;;;8.07;6.50;;;24.20;99.90;;;;;;5047522;28;20037;-42
2023/07/09 04:37:11;;;;;;;9.32;6.88;;;24.20;99.80;;;;;;5047583;28;20020;-42
2023/07/09 04:39:41;;;;;;;10.18;7.65;;;24.20;99.80;;;;;;5047777;28;20070;-43
2023/07/09 04:42:10;;;;;;;7.65;6.65;;;24.20;99.80;;;;;;5047318;28;20461;-42
2023/07/09 04:44:36;;;;;;;7.30;6.28;;;24.20;99.80;;;;;;5047570;28;20013;-42
2023/07/09 04:47:01;;;;;;;7.43;6.63;;;24.30;99.80;;;;;;5046379;28;20055;-42
2023/07/09 04:49:27;;;;;;;8.13;7.07;;;24.30;99.80;;;;;;5046681;28;20044;-41
2023/07/09 04:51:52;;;;;;;7.63;6.60;;;24.30;99.80;;;;;;5047747;28;20025;-42
2023/07/09 04:54:18;;;;;;;8.88;6.90;;;24.30;99.90;;;;;;5046605;28;20040;-42
2023/07/09 04:56:44;;;;;;;8.23;7.07;;;24.30;99.90;;;;;;5047574;28;20029;-41
2023/07/09 04:59:11;;;;;;;9.10;6.63;;;24.30;99.90;;;;;;5047308;28;20028;-41
2023/07/09 05:01:37;;;;;;;7.88;7.07;;;24.40;99.90;;;;;;5047234;28;20499;-42
2023/07/09 05:04:06;;;;;;;7.05;6.35;;;24.40;99.90;;;;;;5047210;28;20025;-42
2023/07/09 05:06:33;;;;;;;7.22;6.57;;;24.40;99.90;;;;;;5046303;28;20087;-42
2023/07/09 05:08:58;;;;;;;8.25;6.32;;;24.40;99.90;;;;;;5046949;28;20037;-41
2023/07/09 05:11:24;;;;;;;7.65;6.30;;;24.40;99.90;;;;;;5047681;28;20562;-42
2023/07/09 05:13:50;;;;;;;9.43;6.90;;;24.50;99.90;;;;;;5046918;28;20647;-42
2023/07/09 05:16:16;;;;;;;7.30;6.55;;;24.50;99.90;;;;;;5046597;28;20029;-42
2023/07/09 05:18:42;;;;;;;7.50;6.03;;;24.50;99.90;;;;;;5046910;28;20029;-45
2023/07/09 05:21:08;;;;;;;7.40;6.47;;;24.60;99.90;;;;;;5047089;28;20094;-42
2023/07/09 05:23:33;;;;;;;7.40;6.60;;;24.60;99.90;;;;;;5046223;28;20024;-41
2023/07/09 05:26:01;;;;;;;8.02;6.75;;;24.60;99.90;;;;;;5046375;28;20315;-42
2023/07/09 05:28:28;;;;;;;7.72;6.30;;;24.60;99.90;;;;;;5046876;28;20024;-42
2023/07/09 05:30:53;;;;;;;8.43;6.57;;;24.70;99.90;;;;;;5046624;28;20029;-42
2023/07/09 05:33:19;;;;;;;7.65;6.55;;;24.70;99.90;;;;;;5046440;28;20029;-42
2023/07/09 05:35:46;;;;;;;8.48;7.00;;;24.70;99.90;;;;;;5046866;28;20029;-43
2023/07/09 05:38:13;;;;;;;8.25;6.78;;;24.80;99.90;;;;;;5046617;28;20048;-43
2023/07/09 05:40:41;;;;;;;9.18;6.93;;;24.80;99.90;;;;;;5046937;28;20032;-42
2023/07/09 05:43:07;;;;;;;8.18;6.95;;;24.80;99.90;;;;;;5046464;28;20059;-42
2023/07/09 05:45:33;;;;;;;7.68;6.88;;;24.80;99.90;;;;;;5046640;28;20044;-42
2023/07/09 05:47:59;;;;;;;8.32;7.45;;;24.80;99.90;;;;;;5046962;28;20029;-42
2023/07/09 05:50:26;;;;;;;9.75;7.30;;;24.90;99.90;;;;;;5045989;28;20616;-42
2023/07/09 05:52:51;;;;;;;8.77;7.43;;;24.90;99.90;;;;;;5047176;28;20415;-43
2023/07/09 05:55:17;;;;;;;9.60;7.22;;;24.90;99.90;;;;;;5046530;28;20547;-42
2023/07/09 05:57:43;;;;;;;10.18;7.78;;;25.00;99.90;;;;;;5045945;28;20103;-42
2023/07/09 06:00:09;;;;;;;10.60;7.53;;;25.00;99.90;;;;;;5046731;28;20059;-42
2023/07/09 06:02:35;;;;;;;8.18;6.75;;;25.10;99.90;;;;;;5046681;28;20037;-42
2023/07/09 06:05:01;;;;;;;8.45;7.50;;;25.10;99.90;;;;;;5045673;28;20090;-42
2023/07/09 06:07:27;;;;;;;10.18;7.80;;;25.10;99.90;;;;;;5046198;28;20053;-42
2023/07/09 06:09:53;;;;;;;9.23;7.40;;;25.20;99.90;;;;;;5046271;28;20629;-42
2023/07/09 06:12:28;;;;;;;10.32;7.05;;;25.20;99.90;;;;;;5045508;28;20055;-43
2023/07/09 06:14:53;;;;;;;9.43;7.63;;;25.30;99.90;;;;;;5046072;28;20037;-42
2023/07/09 06:17:20;;;;;;;7.75;6.90;;;25.40;99.90;;;;;;5046198;28;20053;-41
2023/07/09 06:19:45;;;;;;;7.10;6.05;;;25.40;99.90;;;;;;5045272;28;20405;-41
2023/07/09 06:22:11;;;;;;;5.95;5.35;;;25.50;99.90;;;;;;5045615;28;20025;-42
2023/07/09 06:24:37;;;;;;;6.03;5.43;;;25.50;99.90;;;;;;5046093;28;20115;-41
2023/07/09 06:27:02;;;;;;;5.97;4.82;;;25.70;99.90;;;;;;5044929;28;20099;-41
2023/07/09 06:29:28;;;;;;;5.93;5.43;;;25.70;99.90;;;;;;5046174;28;20051;-42
2023/07/09 06:31:54;;;;;;;5.78;5.18;;;25.80;99.90;;;;;;5046007;28;20052;-43
2023/07/09 06:34:19;;;;;;;7.93;6.18;;;25.90;99.90;;;;;;5044865;28;20067;-42
2023/07/09 06:36:45;;;;;;;5.93;5.32;;;25.90;99.90;;;;;;5045110;28;20017;-42
2023/07/09 06:39:11;;;;;;;5.75;4.50;;;25.90;99.90;;;;;;5045388;28;20033;-42
2023/07/09 06:41:38;;;;;;;5.53;4.60;;;26.00;99.80;;;;;;5044724;28;20505;-42
2023/07/09 06:44:09;;;;;;;8.23;5.53;;;26.00;99.60;;;;;;5045380;28;20037;-42
2023/07/09 06:46:34;;;;;;;7.78;5.47;;;26.10;99.60;;;;;;5043977;28;20504;-42
2023/07/09 06:49:01;;;;;;;5.70;4.78;;;26.10;99.70;;;;;;5045025;28;20032;-42
2023/07/09 06:51:26;;;;;;;6.72;5.63;;;26.10;99.60;;;;;;5045227;28;20104;-42
2023/07/09 06:53:55;;;;;;;5.95;4.97;;;26.20;99.60;;;;;;5044268;28;20477;-42
2023/07/09 06:56:20;;;;;;;6.68;5.28;;;26.20;99.50;;;;;;5045370;28;20535;-41
2023/07/09 06:58:46;;;;;;;5.65;5.05;;;26.30;99.40;;;;;;5045444;28;20029;-41
2023/07/09 07:01:12;;;;;;;6.03;4.93;;;26.30;99.50;;;;;;5044399;28;21479;-42
2023/07/09 07:03:38;;;;;;;5.97;4.70;;;26.30;99.40;;;;;;5045318;28;20016;-42
2023/07/09 07:06:08;;;;;;;6.22;4.82;;;26.30;99.40;;;;;;5045284;28;20116;-42
2023/07/09 07:08:34;;;;;;;5.28;4.75;;;26.40;99.40;;;;;;5043476;28;20500;-42
2023/07/09 07:11:02;;;;;;;6.38;5.60;;;26.40;99.30;;;;;;5045022;28;20475;-42
2023/07/09 07:13:36;;;;;;;5.88;5.28;;;26.50;99.30;;;;;;5045542;28;20175;-42
2023/07/09 07:16:03;;;;;;;6.72;5.35;;;26.50;99.30;;;;;;5044316;28;20033;-42
2023/07/09 07:18:29;;;;;;;5.10;4.60;;;26.50;99.30;;;;;;5045042;28;20036;-42
2023/07/09 07:20:54;;;;;;;4.90;4.40;;;26.60;99.20;;;;;;5045289;28;20044;-42
2023/07/09 07:23:23;;;;;;;4.75;4.35;;;26.60;99.00;;;;;;5043690;28;20190;-42
2023/07/09 07:25:49;;;;;;;6.55;4.82;;;26.60;98.80;;;;;;5045052;28;20017;-42
2023/07/09 07:28:18;;;;;;;7.25;4.80;;;26.60;98.80;;;;;;5044162;28;20037;-42
2023/07/09 07:30:44;;;;;;;4.60;4.20;;;26.70;98.80;;;;;;5044845;28;20028;-42
2023/07/09 07:33:13;;;;;;;6.13;5.13;;;26.80;98.70;;;;;;5044728;28;20029;-42
2023/07/09 07:35:39;;;;;;;6.45;4.50;;;26.80;98.70;;;;;;5044382;28;20022;-42
2023/07/09 07:38:04;;;;;;;6.57;5.03;;;26.80;98.70;;;;;;5045288;28;20032;-43
2023/07/09 07:40:30;;;;;;;6.03;5.03;;;26.80;98.70;;;;;;5044855;28;20477;-42
2023/07/09 07:42:56;;;;;;;5.40;4.90;;;26.80;98.80;;;;;;5044660;28;20025;-42
2023/07/09 07:45:21;;;;;;;8.00;5.90;;;26.90;98.90;;;;;;5044833;28;20404;-42
2023/07/09 07:48:05;;;;;;;6.97;6.03;;;26.90;99.00;;;;;;5044890;28;20032;-43
2023/07/09 07:50:40;;;;;;;8.95;6.32;;;26.90;99.10;;;;;;5033128;28;20024;-43
2023/07/09 07:53:07;;;;;;;9.00;5.70;;;26.90;99.20;;;;;;5044356;28;20088;-42
2023/07/09 07:55:34;;;;;;;6.05;5.45;;;27.00;99.20;;;;;;5044499;28;20052;-43
2023/07/09 07:58:02;;;;;;;6.22;4.80;;;27.00;99.10;;;;;;5044200;28;20144;-42
2023/07/09 08:00:28;;;;;;;5.88;4.72;;;27.00;98.90;;;;;;5045247;28;20095;-42
2023/07/09 08:02:54;;;;;;;5.30;4.60;;;27.10;98.90;;;;;;5044786;28;20468;-42
2023/07/09 08:05:23;;;;;;;5.25;4.45;;;27.20;98.80;;;;;;5042984;28;20380;-42
2023/07/09 08:07:49;;;;;;;6.63;4.60;;;27.20;98.70;;;;;;5044469;28;20124;-41
2023/07/09 08:10:16;;;;;;;6.10;4.25;;;27.20;98.60;;;;;;5044280;28;20107;-42
2023/07/09 08:12:42;;;;;;;7.03;4.35;;;27.30;98.50;;;;;;5043773;28;20111;-42
2023/07/09 08:15:08;;;;;;;5.90;4.60;;;27.30;98.50;;;;;;5044187;28;20021;-41
2023/07/09 08:17:34;;;;;;;5.03;4.53;;;27.40;98.50;;;;;;5044189;28;20063;-41
2023/07/09 08:19:59;;;;;;;4.53;4.13;;;27.50;98.50;;;;;;5043032;28;20473;-42
2023/07/09 08:22:25;;;;;;;5.03;4.53;;;27.50;98.40;;;;;;5045245;28;20020;-42
2023/07/09 08:24:53;;;;;;;5.03;4.53;;;27.50;98.30;;;;;;5047429;28;20025;-42
2023/07/09 08:27:22;;;;;;;5.57;5.00;;;27.60;98.30;;;;;;5047721;28;20028;-42
2023/07/09 08:29:48;;;;;;;6.88;4.68;;;27.60;98.30;;;;;;5047292;28;20569;-42
2023/07/09 08:32:16;;;;;;;5.65;4.93;;;27.60;98.10;;;;;;5047075;28;20108;-42
2023/07/09 08:34:42;;;;;;;4.85;4.32;;;27.70;98.20;;;;;;5047197;28;20070;-42
2023/07/09 08:37:08;;;;;;;4.60;4.15;;;27.80;98.00;;;;;;5047726;28;20017;-42
2023/07/09 08:39:34;;;;;;;5.80;4.53;;;27.80;97.90;;;;;;5047296;28;20032;-42
2023/07/09 08:42:20;;;;;;;4.88;4.10;;;27.90;97.80;;;;;;5047774;28;20023;-42
2023/07/09 08:45:23;;;;;;;4.80;4.30;;;28.00;97.70;;;;;;5047589;28;20033;-42
2023/07/09 08:47:52;;;;;;;4.82;4.32;;;28.10;97.70;;;;;;5039517;28;20056;-42
2023/07/09 08:50:42;;;;;;;5.10;4.60;;;28.20;97.70;;;;;;5047997;28;20029;-42
2023/07/09 08:53:24;;;;;;;5.35;4.85;;;28.20;97.60;;;;;;5047348;28;20584;-41
2023/07/09 08:55:51;;;;;;;4.85;4.20;;;28.30;97.50;;;;;;5048319;28;20368;-42
2023/07/09 08:58:25;;;;;;;4.93;4.35;;;28.40;97.30;;;;;;5048005;28;20029;-42
2023/07/09 09:00:56;;;;;;;6.70;4.40;;;28.50;97.30;;;;;;5046991;28;20037;-42
2023/07/09 09:03:40;;;;;;;5.32;4.82;;;28.40;97.30;;;;;;5047890;28;20028;-42
2023/07/09 09:06:15;;;;;;;6.40;4.72;;;28.50;97.30;;;;;;5047136;28;20041;-44
2023/07/09 09:08:47;;;;;;;4.35;3.95;;;28.50;97.30;;;;;;5046904;28;20128;-43
2023/07/09 09:11:30;;;;;;;5.20;4.70;;;28.50;97.20;;;;;;5047767;28;20025;-43
2023/07/09 09:14:08;;;;;;;6.55;4.63;;;28.50;97.20;;;;;;5047873;28;20033;-41
2023/07/09 09:16:38;;;;;;;6.68;4.55;;;28.50;97.20;;;;;;5046719;28;20127;-41
2023/07/09 09:19:26;;;;;;;5.22;4.57;;;28.50;97.10;;;;;;5046326;28;20186;-41
2023/07/09 09:22:05;;;;;;;4.95;4.35;;;28.60;97.10;;;;;;5046223;28;20028;-41
2023/07/09 09:24:40;;;;;;;5.53;4.78;;;28.70;96.90;;;;;;5046833;28;20513;-43
2023/07/09 09:27:11;;;;;;;4.68;4.05;;;28.70;96.80;;;;;;5046668;28;20013;-42
2023/07/09 09:29:36;;;;;;;4.07;3.58;;;28.70;96.60;;;;;;5046372;28;20120;-42
2023/07/09 09:32:19;;;;;;;4.57;4.00;;;28.80;96.80;;;;;;5046570;28;20100;-42
2023/07/09 09:34:44;;;;;;;4.30;3.60;;;28.90;96.40;;;;;;5046328;28;20039;-42
2023/07/09 09:37:13;;;;;;;4.10;3.63;;;28.90;96.40;;;;;;5045850;28;20423;-42
2023/07/09 09:39:39;;;;;;;5.82;4.35;;;29.00;96.30;;;;;;5047286;28;20036;-42
2023/07/09 09:42:11;;;;;;;4.75;4.20;;;29.10;96.20;;;;;;5046195;28;20024;-43
2023/07/09 09:44:44;;;;;;;4.57;4.18;;;29.20;96.20;;;;;;5046285;28;20420;-42
2023/07/09 09:47:11;;;;;;;5.85;4.05;;;29.20;96.20;;;;;;5046686;28;20028;-42
2023/07/09 09:49:42;;;;;;;4.22;3.83;;;29.30;96.10;;;;;;5046067;28;20067;-43
2023/07/09 09:52:18;;;;;;;4.60;4.15;;;29.30;96.10;;;;;;5046379;28;20020;-42
2023/07/09 09:54:53;;;;;;;4.70;4.30;;;29.40;96.10;;;;;;5035872;28;20047;-42
2023/07/09 09:57:24;;;;;;;5.75;3.97;;;29.50;96.00;;;;;;5045535;28;20060;-42
2023/07/09 09:59:53;;;;;;;4.28;3.58;;;29.60;95.90;;;;;;5046377;28;20536;-41
2023/07/09 10:02:45;;;;;;;4.18;3.78;;;29.70;95.70;;;;;;5046075;28;20023;-42
2023/07/09 10:05:30;;;;;;;4.63;4.22;;;29.80;95.40;;;;;;5035659;28;20629;-42
2023/07/09 10:08:06;;;;;;;5.35;4.05;;;29.90;95.40;;;;;;5045741;28;20167;-42
2023/07/09 10:10:35;;;;;;;4.15;3.80;;;29.90;95.40;;;;;;5045223;28;20375;-43
2023/07/09 10:13:31;;;;;;;3.83;3.40;;;29.90;95.30;;;;;;5045471;28;20500;-43
2023/07/09 10:16:25;;;;;;;4.82;3.88;;;30.00;94.90;;;;;;5041872;28;20063;-43
2023/07/09 10:18:57;;;;;;;4.20;3.78;;;30.10;94.70;;;;;;5044984;28;20017;-43
2023/07/09 10:21:40;;;;;;;4.93;4.18;;;30.10;94.70;;;;;;5046196;28;20034;-43
2023/07/09 10:24:30;;;;;;;7.55;4.30;;;30.00;94.70;;;;;;5045896;28;20025;-42
2023/07/09 10:27:12;;;;;;;5.68;3.92;;;30.00;94.60;;;;;;5046235;28;20025;-42
2023/07/09 10:30:24;;;;;;;4.18;3.78;;;29.90;94.60;;;;;;5045786;28;20120;-42
2023/07/09 10:33:07;;;;;;;5.05;3.50;;;29.90;94.70;;;;;;5021373;28;20048;-42
2023/07/09 10:35:49;;;;;;;5.55;4.00;;;29.90;94.40;;;;;;5045600;28;20025;-42
2023/07/09 10:38:25;;;;;;;4.80;3.97;;;30.00;94.40;;;;;;5045700;28;20090;-42
2023/07/09 10:40:57;;;;;;;4.15;3.75;;;30.00;94.30;;;;;;5042330;28;20025;-41
2023/07/09 10:43:44;;;;;;;4.47;3.67;;;30.10;94.10;;;;;;5045588;28;20104;-42
2023/07/09 10:46:19;;;;;;;4.55;3.60;;;30.20;93.90;;;;;;5042345;28;20354;-41
2023/07/09 10:48:48;;;;;;;3.95;3.58;;;30.30;93.70;;;;;;5046116;28;20028;-42
2023/07/09 10:51:32;;;;;;;6.80;3.78;;;30.30;93.70;;;;;;5045701;28;20029;-42
2023/07/09 10:54:26;;;;;;;4.97;3.70;;;30.30;93.70;;;;;;5045154;28;20029;-41
2023/07/09 10:56:57;;;;;;;4.18;3.50;;;30.30;93.70;;;;;;5035589;28;20112;-41
2023/07/09 10:59:35;;;;;;;3.90;3.50;;;30.20;93.60;;;;;;5045585;28;20472;-42
2023/07/09 11:02:25;;;;;;;3.92;3.15;;;30.30;93.60;;;;;;5035022;28;20060;-42
2023/07/09 11:04:57;;;;;;;3.30;3.00;;;30.40;93.50;;;;;;5045004;28;20023;-42
2023/07/09 11:07:32;;;;;;;;;;;30.50;93.30;;;;;;5044922;28;20048;-42
2023/07/09 11:10:00;;;;;;;3.20;2.90;;;30.60;93.30;;;;;;5044894;28;19991;-42
2023/07/09 11:12:46;;;;;;;5.00;3.85;;;30.60;93.30;;;;;;5044179;28;20475;-41
2023/07/09 11:15:27;;;;;;;3.83;3.22;;;30.60;93.30;;;;;;5047392;28;20217;-42
2023/07/09 11:17:53;;;;;;;5.57;3.88;;;30.60;93.30;;;;;;5045356;28;20021;-41
2023/07/09 11:20:27;;;;;;;5.32;3.90;;;30.70;93.20;;;;;;5044055;28;20070;-42
2023/07/09 11:23:01;;;;;;;4.72;3.83;;;30.70;93.00;;;;;;5044818;28;20031;-42
2023/07/09 11:25:48;;;;;;;4.30;3.55;;;30.70;92.90;;;;;;5045848;28;20136;-42
2023/07/09 11:28:32;;;;;;;3.85;3.45;;;30.80;92.80;;;;;;5044448;28;20083;-42
2023/07/09 11:31:16;;;;;;;4.20;3.80;;;30.80;92.80;;;;;;5045256;28;20021;-42
2023/07/09 11:33:47;;;;;;;4.28;3.60;;;31.00;92.60;;;;;;5045583;28;20033;-42
2023/07/09 11:36:23;;;;;;;3.92;3.35;;;31.10;92.50;;;;;;5044380;28;20516;-42
2023/07/09 11:38:48;;;;;;;4.25;3.70;;;31.10;92.40;;;;;;5044880;28;20380;-42
2023/07/09 11:41:41;;;;;;;3.88;3.53;;;31.20;92.10;;;;;;5045297;28;20088;-42
2023/07/09 11:44:12;;;;;;;4.80;3.47;;;31.30;91.90;;;;;;5044946;28;20025;-42
2023/07/09 11:46:49;;;;;;;3.78;3.47;;;31.40;91.90;;;;;;5044504;28;20086;-43
2023/07/09 11:49:17;;;;;;;4.82;3.55;;;31.50;91.90;;;;;;5044326;28;20163;-42
2023/07/09 11:51:52;;;;;;;4.13;3.10;;;31.60;91.80;;;;;;5039146;28;20320;-41
2023/07/09 11:54:22;;;;;;;3.90;3.50;;;31.60;91.80;;;;;;5044726;28;20056;-41
2023/07/09 11:56:58;;;;;;;3.70;3.30;;;31.70;91.80;;;;;;5044108;28;20480;-41
2023/07/09 11:59:24;;;;;;;3.70;3.30;;;31.80;91.50;;;;;;5049085;28;20029;-43
2023/07/09 12:01:54;;;;;;;3.63;2.83;;;31.90;91.20;;;;;;5048521;28;20013;-42
2023/07/09 12:04:22;;;;;;;4.53;3.40;;;32.10;91.10;;;;;;5048071;28;20021;-42
2023/07/09 12:06:47;;;;;;;3.08;2.78;;;32.20;90.90;;;;;;5047280;28;20124;-42
2023/07/09 12:09:18;;;;;;;4.63;3.47;;;32.30;91.00;;;;;;5048010;28;20116;-42
2023/07/09 12:11:47;;;;;;;3.95;3.55;;;32.40;90.50;;;;;;5047199;28;20388;-42
2023/07/09 12:14:18;;;;;;;5.60;3.47;;;32.40;90.50;;;;;;5048121;28;20041;-42
2023/07/09 12:16:50;;;;;;;3.33;3.03;;;32.50;90.30;;;;;;5048472;28;20071;-42
2023/07/09 12:19:21;;;;;;;3.38;3.08;;;32.60;90.20;;;;;;5047580;28;20668;-42
2023/07/09 12:21:56;;;;;;;;;;;32.70;90.10;;;;;;5048779;28;20044;-42
2023/07/09 12:24:25;;;;;;;3.60;3.08;;;32.70;90.00;;;;;;5044508;28;19909;-42
2023/07/09 12:26:58;;;;;;;3.25;2.95;;;32.80;89.70;;;;;;5047960;28;20036;-46
2023/07/09 12:29:35;;;;;;;2.80;2.60;;;32.80;89.90;;;;;;5048603;28;20108;-42
2023/07/09 12:32:12;;;;;;;5.28;3.05;;;32.80;89.80;;;;;;5047487;28;20039;-42
2023/07/09 12:34:38;;;;;;;4.18;2.65;;;32.80;89.70;;;;;;5044387;28;20048;-42
2023/07/09 12:37:04;;;;;;;2.85;2.65;;;32.60;90.00;;;;;;5047920;28;20392;-42
2023/07/09 12:39:32;;;;;;;3.60;2.80;;;32.40;90.40;;;;;;5047596;28;20024;-42
2023/07/09 12:42:02;;;;;;;4.07;2.60;;;32.20;90.90;;;;;;5047734;28;20049;-42
2023/07/09 12:44:35;;;;;;;3.47;2.88;;;32.10;91.20;;;;;;5048010;28;20013;-42
2023/07/09 12:47:04;;;;;;;3.78;3.38;;;31.90;91.80;;;;;;5047227;28;20053;-42
2023/07/09 12:49:37;;;;;;;3.90;3.13;;;31.70;92.40;;;;;;5047832;28;20029;-42
2023/07/09 12:52:09;;;;;;;3.50;3.20;;;31.60;93.20;;;;;;5047470;28;20033;-42
2023/07/09 12:54:34;;;;;;;;;;;31.50;93.50;;;;;;5048218;28;20124;-42
2023/07/09 12:57:14;;;;;;;3.38;3.08;;;31.50;93.50;;;;;;5047811;28;19999;-43
2023/07/09 12:59:41;;;;;;;4.20;2.25;;;31.50;93.80;;;;;;5046693;28;20032;-42
2023/07/09 13:02:26;;;;;;;3.13;2.60;;;31.50;93.50;;;;;;5047631;28;20082;-42
2023/07/09 13:05:01;;;;;;;4.13;2.60;;;31.60;93.20;;;;;;5047165;28;20542;-42